Lea County Regional Airport Hobbs US
ICAO: KHOB
IATA: HOB
Category: Medium
Scheduled Services: No

Elevation: 3661 ft
TransAlt. 18000 ft.

Airport Communications:
ATIS:119.75
FORT WORTH CNTR:133.1
CTAF:120.65
GND:121.9
ALBUQUERQUE RDO:122.2
HOBBS TWR:120.65
UNICOM:122.95

KHOB Zoom In..

Runways:

(A) RW 03 length 7398 ft width 150 ft
ILS 108.50 / hdg 35

(B) RW 12 length 6002 ft width 150 ft
---- / hdg 125

(C) RW 17 length 4998 ft width 100 ft
---- / hdg 170

(D) RW 21 length 7398 ft width 150 ft
---- / hdg 215

(E) RW 30 length 6002 ft width 150 ft
---- / hdg 305

(F) RW 35 length 4998 ft width 100 ft
---- / hdg 350

Location; KHOB
Day. 22 / Time. 00.55 Zulu
* Altimeter: 30.08
* Temperature: 17° c. 62.6°f.
* Wind from: 060° Speed 15 kn.
Dewpoint: 01° c.
Visibility: 10 Statute Miles.
Clouds: Clear (automated report).

KHOB 220055Z AUTO 06015KT 10SM CLR 17/01 A3008 RMK AO2


Wind From 060°
Speed 15 kn.

  YouTube Music Video
 
jpsmedia.com for Web Design  worldairports.se 2018   terms of use